Time;durP1;ratioP1;P1;durP2;ratioP2;P2;SDS_P1;SDS_P2;PMS_P1;PMS_P2;Temp;Humidity;BMP_temperature;BMP_pressure;BME280_temperature;BME280_humidity;BME280_pressure;Samples;Min_cycle;Max_cycle;Signal;HPM_P1;HPM_P2
2022/08/16 00:01:47;;;;;;;7.55;5.20;;;24.80;59.10;;;;;;5019948;28;20057;-67
2022/08/16 00:04:13;;;;;;;8.32;4.90;;;24.80;58.70;;;;;;5022659;28;20025;-67
2022/08/16 00:06:40;;;;;;;10.75;5.18;;;24.80;58.80;;;;;;5020319;28;20349;-67
2022/08/16 00:09:06;;;;;;;7.65;5.07;;;24.70;58.90;;;;;;5020845;28;20033;-68
2022/08/16 00:11:32;;;;;;;7.68;4.88;;;24.70;59.00;;;;;;5018543;28;20033;-67
2022/08/16 00:13:58;;;;;;;7.85;5.10;;;24.70;59.20;;;;;;5016553;28;20064;-67
2022/08/16 00:16:30;;;;;;;10.18;5.40;;;24.70;59.30;;;;;;5018208;28;20022;-67
2022/08/16 00:18:57;;;;;;;8.95;5.47;;;24.60;59.40;;;;;;5036980;28;20037;-67
2022/08/16 00:21:22;;;;;;;9.10;5.65;;;24.60;59.50;;;;;;5016772;28;20034;-68
2022/08/16 00:23:48;;;;;;;8.95;5.20;;;24.60;59.60;;;;;;5030928;28;20535;-67
2022/08/16 00:26:14;;;;;;;10.07;5.57;;;24.50;59.70;;;;;;5020190;28;20046;-67
2022/08/16 00:28:39;;;;;;;7.93;5.05;;;24.50;59.80;;;;;;5020075;28;20056;-67
2022/08/16 00:31:05;;;;;;;9.70;5.07;;;24.50;59.90;;;;;;5024430;28;20432;-67
2022/08/16 00:33:31;;;;;;;7.90;5.30;;;24.50;60.10;;;;;;5022508;28;20017;-67
2022/08/16 00:35:56;;;;;;;10.30;5.90;;;24.40;60.10;;;;;;5023231;28;20030;-67
2022/08/16 00:38:22;;;;;;;8.90;6.05;;;24.40;60.20;;;;;;5022549;28;20084;-64
2022/08/16 00:40:51;;;;;;;8.55;5.70;;;24.40;60.20;;;;;;5017308;28;20080;-64
2022/08/16 00:43:38;;;;;;;8.18;5.53;;;24.40;60.40;;;;;;5015598;28;20061;-64
2022/08/16 00:46:28;;;;;;;11.10;6.35;;;24.40;60.40;;;;;;5014991;28;20063;-64
2022/08/16 00:48:54;;;;;;;9.48;6.18;;;24.40;60.50;;;;;;4997376;28;20029;-64
2022/08/16 00:51:22;;;;;;;9.65;6.70;;;24.30;60.50;;;;;;5025386;28;20378;-64
2022/08/16 00:53:50;;;;;;;9.95;6.65;;;24.30;60.70;;;;;;5025056;28;20438;-64
2022/08/16 00:56:30;;;;;;;10.68;7.00;;;24.30;60.70;;;;;;5016520;28;20466;-64
2022/08/16 00:58:56;;;;;;;10.68;7.68;;;24.30;60.80;;;;;;5027892;28;20064;-64
2022/08/16 01:01:22;;;;;;;10.38;6.95;;;24.20;60.90;;;;;;5025688;28;20022;-64
2022/08/16 01:03:51;;;;;;;11.40;7.30;;;24.20;61.00;;;;;;5012684;28;20478;-65
2022/08/16 01:06:20;;;;;;;10.25;7.03;;;24.20;61.10;;;;;;5025627;28;20032;-64
2022/08/16 01:08:49;;;;;;;10.27;7.20;;;24.20;61.20;;;;;;5030074;28;20057;-64
2022/08/16 01:11:15;;;;;;;11.70;6.20;;;24.20;61.30;;;;;;5017800;28;20091;-64
2022/08/16 01:13:42;;;;;;;9.75;6.65;;;24.10;61.30;;;;;;5017947;28;20050;-64
2022/08/16 01:16:13;;;;;;;10.27;7.13;;;24.10;61.50;;;;;;5008115;28;20109;-64
2022/08/16 01:18:58;;;;;;;9.73;7.20;;;24.10;61.60;;;;;;5024459;28;20064;-64
2022/08/16 01:21:48;;;;;;;10.43;6.80;;;24.10;61.70;;;;;;5027711;28;20138;-64
2022/08/16 01:24:22;;;;;;;10.50;6.88;;;24.00;61.80;;;;;;5025314;28;20040;-64
2022/08/16 01:26:50;;;;;;;10.15;6.45;;;24.00;61.90;;;;;;5015436;28;20025;-64
2022/08/16 01:29:22;;;;;;;15.25;7.50;;;24.00;62.10;;;;;;5015889;28;20335;-64
2022/08/16 01:31:48;;;;;;;10.65;7.15;;;23.90;62.20;;;;;;5023712;28;20396;-64
2022/08/16 01:34:16;;;;;;;9.90;7.18;;;23.90;62.20;;;;;;5022073;28;20108;-64
2022/08/16 01:36:41;;;;;;;10.20;7.40;;;23.90;62.30;;;;;;5018709;28;20044;-64
2022/08/16 01:39:15;;;;;;;11.15;7.60;;;23.90;62.30;;;;;;5013793;28;20462;-67
2022/08/16 01:41:46;;;;;;;9.60;8.02;;;23.90;62.50;;;;;;5015171;28;20045;-67
2022/08/16 01:44:13;;;;;;;11.30;7.97;;;23.80;62.50;;;;;;5022709;28;20049;-67
2022/08/16 01:46:42;;;;;;;11.63;8.32;;;23.80;62.50;;;;;;5022253;28;20034;-67
2022/08/16 01:49:21;;;;;;;11.10;8.02;;;23.80;62.60;;;;;;5033887;28;20035;-67
2022/08/16 01:51:56;;;;;;;11.75;8.35;;;23.80;62.70;;;;;;5029418;28;20056;-67
2022/08/16 01:54:30;;;;;;;10.52;7.65;;;23.80;62.70;;;;;;5041899;28;20432;-67
2022/08/16 01:56:56;;;;;;;9.73;7.22;;;23.80;62.70;;;;;;5014866;28;20079;-66
2022/08/16 01:59:23;;;;;;;9.55;7.22;;;23.80;62.70;;;;;;5008533;28;20041;-67
2022/08/16 02:01:52;;;;;;;11.98;7.57;;;23.80;62.70;;;;;;5028420;28;20039;-67
2022/08/16 02:04:20;;;;;;;11.45;7.85;;;23.80;62.70;;;;;;5021911;28;20099;-67
2022/08/16 02:06:46;;;;;;;11.32;7.32;;;23.70;62.80;;;;;;5022635;28;20029;-67
2022/08/16 02:09:14;;;;;;;10.27;7.68;;;23.70;62.80;;;;;;5022524;28;20366;-67
2022/08/16 02:11:42;;;;;;;10.77;7.40;;;23.70;62.80;;;;;;5030422;28;20077;-67
2022/08/16 02:14:08;;;;;;;10.82;7.32;;;23.70;62.80;;;;;;5019943;28;20037;-67
2022/08/16 02:16:35;;;;;;;11.55;7.65;;;23.70;62.90;;;;;;5016975;28;20018;-67
2022/08/16 02:19:01;;;;;;;11.77;8.07;;;23.70;62.90;;;;;;5023762;28;20401;-67
2022/08/16 02:21:27;;;;;;;12.48;8.00;;;23.60;62.90;;;;;;5017272;28;20374;-67
2022/08/16 02:23:53;;;;;;;12.10;8.32;;;23.60;63.10;;;;;;4997398;28;20025;-67
2022/08/16 02:26:18;;;;;;;12.40;7.95;;;23.60;63.10;;;;;;5018396;28;20025;-67
2022/08/16 02:28:44;;;;;;;9.63;7.57;;;23.60;63.20;;;;;;5027349;28;20437;-67
2022/08/16 02:31:13;;;;;;;10.68;8.60;;;23.50;63.20;;;;;;5026615;28;20123;-67
2022/08/16 02:33:42;;;;;;;11.35;8.32;;;23.50;63.30;;;;;;4996692;28;20030;-67
2022/08/16 02:36:11;;;;;;;12.30;7.75;;;23.50;63.40;;;;;;5018491;28;20018;-66
2022/08/16 02:38:38;;;;;;;11.23;8.07;;;23.50;63.40;;;;;;5021329;28;20029;-67
2022/08/16 02:41:05;;;;;;;10.73;8.23;;;23.50;63.50;;;;;;5032528;28;20355;-66
2022/08/16 02:43:32;;;;;;;11.73;8.52;;;23.40;63.60;;;;;;5006657;28;20401;-67
2022/08/16 02:46:01;;;;;;;11.18;8.15;;;23.40;63.70;;;;;;5038725;28;20116;-67
2022/08/16 02:48:29;;;;;;;10.75;7.70;;;23.40;63.80;;;;;;5022275;28;20033;-66
2022/08/16 02:51:00;;;;;;;9.73;7.72;;;23.40;63.80;;;;;;5029717;28;20026;-67
2022/08/16 02:53:25;;;;;;;11.85;8.35;;;23.30;63.90;;;;;;5000380;28;20022;-67
2022/08/16 02:55:52;;;;;;;10.57;8.02;;;23.30;64.00;;;;;;5026068;28;20348;-67
2022/08/16 02:58:19;;;;;;;12.60;8.57;;;23.30;64.00;;;;;;5015144;28;20502;-67
2022/08/16 03:00:45;;;;;;;10.18;8.00;;;23.30;64.10;;;;;;5023335;28;20021;-66
2022/08/16 03:03:11;;;;;;;12.23;8.52;;;23.30;64.10;;;;;;5000908;28;20026;-67
2022/08/16 03:05:37;;;;;;;12.43;9.48;;;23.30;64.20;;;;;;5015327;28;20036;-67
2022/08/16 03:08:03;;;;;;;11.13;9.55;;;23.20;64.20;;;;;;5015512;28;20363;-67
2022/08/16 03:10:35;;;;;;;15.43;9.95;;;23.20;64.40;;;;;;5027185;28;20045;-69
2022/08/16 03:13:01;;;;;;;13.93;9.27;;;23.20;64.40;;;;;;5005810;28;20064;-67
2022/08/16 03:15:28;;;;;;;13.55;9.55;;;23.20;64.50;;;;;;5021964;28;20141;-66
2022/08/16 03:17:55;;;;;;;12.48;9.73;;;23.20;64.50;;;;;;5013244;28;20033;-67
2022/08/16 03:20:23;;;;;;;12.55;9.93;;;23.20;64.60;;;;;;5019991;28;20026;-66
2022/08/16 03:22:49;;;;;;;11.80;9.40;;;23.10;64.60;;;;;;5018885;28;20034;-66
2022/08/16 03:25:15;;;;;;;13.88;10.82;;;23.10;64.70;;;;;;5024514;28;20059;-66
2022/08/16 03:27:52;;;;;;;12.15;9.90;;;23.10;64.90;;;;;;5015096;28;20133;-66
2022/08/16 03:30:23;;;;;;;13.07;9.73;;;23.10;65.00;;;;;;5019984;28;20105;-66
2022/08/16 03:32:54;;;;;;;15.25;9.75;;;23.10;65.10;;;;;;5022678;28;20336;-67
2022/08/16 03:35:26;;;;;;;13.52;9.25;;;23.10;65.10;;;;;;5016809;28;20057;-66
2022/08/16 03:37:58;;;;;;;14.27;10.20;;;23.00;65.10;;;;;;5006346;28;20113;-66
2022/08/16 03:40:28;;;;;;;13.07;9.27;;;23.00;65.20;;;;;;5023889;28;20057;-67
2022/08/16 03:42:54;;;;;;;12.35;10.20;;;23.00;65.30;;;;;;5019314;28;20044;-67
2022/08/16 03:45:22;;;;;;;14.95;10.50;;;22.90;65.30;;;;;;5016467;28;20033;-67
2022/08/16 03:47:49;;;;;;;13.10;10.65;;;22.90;65.40;;;;;;5020759;28;20355;-67
2022/08/16 03:50:15;;;;;;;12.35;9.73;;;22.90;65.50;;;;;;5017029;28;20113;-67
2022/08/16 03:52:42;;;;;;;13.50;11.10;;;22.90;65.60;;;;;;5013051;28;20088;-66
2022/08/16 03:55:09;;;;;;;14.90;11.43;;;22.90;65.70;;;;;;4992662;28;20022;-66
2022/08/16 03:57:35;;;;;;;13.38;10.95;;;22.90;65.70;;;;;;5007632;28;20022;-66
2022/08/16 04:00:15;;;;;;;13.23;11.13;;;22.90;65.80;;;;;;5034303;28;20125;-67
2022/08/16 04:02:42;;;;;;;13.45;10.77;;;22.80;65.80;;;;;;5013355;28;20097;-67
2022/08/16 04:05:15;;;;;;;14.50;10.85;;;22.80;65.90;;;;;;5021304;28;20029;-67
2022/08/16 04:07:41;;;;;;;13.38;11.15;;;22.80;66.00;;;;;;5009232;28;20029;-67
2022/08/16 04:10:10;;;;;;;13.45;10.88;;;22.80;66.10;;;;;;5031539;28;20083;-67
2022/08/16 04:12:35;;;;;;;14.18;10.18;;;22.70;66.10;;;;;;5007116;28;20461;-66
2022/08/16 04:15:02;;;;;;;13.68;10.75;;;22.70;66.20;;;;;;5019668;28;20049;-69
2022/08/16 04:17:28;;;;;;;14.98;11.45;;;22.70;66.30;;;;;;5020801;28;20429;-69
2022/08/16 04:19:56;;;;;;;12.85;11.02;;;22.70;66.40;;;;;;5006970;28;20085;-69
2022/08/16 04:22:23;;;;;;;13.93;11.32;;;22.70;66.50;;;;;;5022077;28;20022;-69
2022/08/16 04:24:52;;;;;;;16.42;11.57;;;22.70;66.60;;;;;;5028651;28;20032;-69
2022/08/16 04:27:18;;;;;;;14.48;12.02;;;22.70;66.70;;;;;;5035588;28;20025;-69
2022/08/16 04:29:44;;;;;;;16.60;11.55;;;22.70;66.80;;;;;;5035417;28;20022;-69
2022/08/16 04:32:09;;;;;;;13.60;10.77;;;22.70;66.80;;;;;;5015396;28;20019;-69
2022/08/16 04:34:38;;;;;;;14.88;11.93;;;22.60;66.80;;;;;;5030841;28;20045;-68
2022/08/16 04:37:05;;;;;;;15.65;12.07;;;22.60;66.90;;;;;;5034610;28;20512;-68
2022/08/16 04:39:34;;;;;;;17.45;13.05;;;22.60;66.90;;;;;;5034134;28;20030;-68
2022/08/16 04:42:01;;;;;;;14.02;11.38;;;22.60;67.00;;;;;;5026217;28;20112;-68
2022/08/16 04:44:27;;;;;;;14.80;12.57;;;22.60;67.10;;;;;;5029423;28;20029;-69
2022/08/16 04:46:52;;;;;;;16.00;13.30;;;22.60;67.10;;;;;;5035267;28;20393;-68
2022/08/16 04:49:19;;;;;;;15.98;13.18;;;22.60;67.20;;;;;;5016480;28;20454;-70
2022/08/16 04:51:45;;;;;;;15.10;12.90;;;22.60;67.20;;;;;;5035377;28;20029;-69
2022/08/16 04:54:11;;;;;;;17.00;13.07;;;22.70;67.30;;;;;;5024063;28;20060;-69
2022/08/16 04:56:37;;;;;;;19.33;12.85;;;22.70;67.30;;;;;;5032330;28;20029;-69
2022/08/16 04:59:04;;;;;;;16.60;13.30;;;22.70;67.30;;;;;;5030093;28;20335;-69
2022/08/16 05:01:31;;;;;;;15.25;12.55;;;22.70;67.30;;;;;;5029632;28;20446;-68
2022/08/16 05:03:56;;;;;;;13.88;12.40;;;22.70;67.30;;;;;;5031039;28;20029;-69
2022/08/16 05:06:22;;;;;;;16.48;13.00;;;22.70;67.30;;;;;;5034949;28;20026;-68
2022/08/16 05:08:48;;;;;;;16.52;12.60;;;22.70;67.30;;;;;;5034732;28;20033;-69
2022/08/16 05:11:21;;;;;;;17.42;11.88;;;22.80;67.40;;;;;;5019287;28;20040;-69
2022/08/16 05:13:48;;;;;;;14.73;12.32;;;22.80;67.40;;;;;;5018317;28;20037;-69
2022/08/16 05:16:23;;;;;;;15.68;12.95;;;22.80;67.40;;;;;;5020303;28;20021;-69
2022/08/16 05:18:54;;;;;;;17.23;12.82;;;22.80;67.30;;;;;;5015012;28;20113;-69
2022/08/16 05:21:21;;;;;;;19.00;13.10;;;22.80;67.20;;;;;;5025099;28;20029;-69
2022/08/16 05:23:51;;;;;;;17.60;13.10;;;22.90;67.20;;;;;;5016284;28;20025;-69
2022/08/16 05:26:18;;;;;;;15.13;12.90;;;22.90;67.20;;;;;;5035057;28;20453;-70
2022/08/16 05:28:44;;;;;;;15.80;13.27;;;22.90;67.20;;;;;;5033191;28;20037;-70
2022/08/16 05:31:10;;;;;;;14.55;12.57;;;23.00;67.10;;;;;;5017384;28;20461;-69
2022/08/16 05:33:35;;;;;;;15.63;12.32;;;23.00;67.00;;;;;;5016411;28;20034;-69
2022/08/16 05:36:01;;;;;;;14.95;13.18;;;23.10;67.00;;;;;;5034412;28;20134;-70
2022/08/16 05:38:34;;;;;;;16.42;13.40;;;23.10;66.90;;;;;;5035609;28;20099;-69
2022/08/16 05:41:03;;;;;;;16.27;12.90;;;23.10;66.90;;;;;;5034299;28;20025;-70
2022/08/16 05:43:36;;;;;;;14.93;13.32;;;23.20;66.80;;;;;;5023808;28;20025;-68
2022/08/16 05:46:02;;;;;;;15.52;13.48;;;23.20;66.70;;;;;;5024445;28;20041;-68
2022/08/16 05:48:28;;;;;;;17.20;13.82;;;23.20;66.60;;;;;;5017829;28;20045;-69
2022/08/16 05:50:59;;;;;;;15.82;13.88;;;23.30;66.40;;;;;;5033548;28;20431;-69
2022/08/16 05:53:24;;;;;;;17.02;14.27;;;23.30;66.30;;;;;;5006583;28;20033;-69
2022/08/16 05:56:12;;;;;;;17.55;14.02;;;23.30;66.10;;;;;;5022994;28;20021;-69
2022/08/16 05:58:40;;;;;;;16.38;14.15;;;23.40;66.00;;;;;;5000634;28;20550;-69
2022/08/16 06:01:08;;;;;;;16.00;13.73;;;23.50;65.80;;;;;;5004506;28;20443;-68
2022/08/16 06:03:36;;;;;;;19.90;13.48;;;23.60;65.60;;;;;;5008272;28;20420;-69
2022/08/16 06:06:08;;;;;;;19.50;13.02;;;23.70;65.40;;;;;;5030076;28;20029;-69
2022/08/16 06:08:35;;;;;;;16.58;14.20;;;23.80;65.20;;;;;;5026659;28;20017;-69
2022/08/16 06:11:02;;;;;;;16.60;13.15;;;24.10;64.60;;;;;;5033683;28;20040;-69
2022/08/16 06:13:28;;;;;;;15.60;12.48;;;24.80;63.20;;;;;;5024093;28;20046;-69
2022/08/16 06:15:54;;;;;;;15.65;13.40;;;25.30;62.00;;;;;;5020856;28;20599;-69
2022/08/16 06:18:19;;;;;;;15.23;12.25;;;25.60;61.50;;;;;;5030925;28;20022;-69
2022/08/16 06:20:46;;;;;;;16.80;13.70;;;25.70;61.00;;;;;;5033727;28;20048;-69
2022/08/16 06:23:17;;;;;;;17.08;12.98;;;25.80;60.80;;;;;;5027465;28;20463;-70
2022/08/16 06:25:53;;;;;;;16.77;12.90;;;25.80;60.70;;;;;;5023867;28;20462;-70
2022/08/16 06:28:22;;;;;;;16.50;12.70;;;25.70;60.50;;;;;;5033449;28;20080;-69
2022/08/16 06:30:48;;;;;;;14.05;11.82;;;25.80;60.30;;;;;;5033916;28;20041;-70
2022/08/16 06:33:16;;;;;;;13.30;11.50;;;25.80;60.10;;;;;;5023750;28;20018;-69
2022/08/16 06:35:42;;;;;;;14.60;12.45;;;25.90;60.00;;;;;;5033409;28;20339;-69
2022/08/16 06:38:09;;;;;;;14.15;11.45;;;25.90;59.70;;;;;;5033430;28;20084;-69
2022/08/16 06:40:34;;;;;;;13.68;12.13;;;25.90;59.60;;;;;;5021570;28;20358;-69
2022/08/16 06:43:00;;;;;;;13.85;12.23;;;26.00;59.40;;;;;;5015792;28;20083;-69
2022/08/16 06:45:41;;;;;;;16.50;12.80;;;26.00;59.00;;;;;;5031909;28;20017;-68
2022/08/16 06:48:12;;;;;;;14.20;11.82;;;26.10;58.80;;;;;;5014326;28;20029;-68
2022/08/16 06:50:37;;;;;;;15.82;12.68;;;26.20;58.50;;;;;;5017279;28;20029;-68
2022/08/16 06:53:06;;;;;;;16.17;13.68;;;26.30;58.30;;;;;;5026273;28;20025;-68
2022/08/16 06:55:34;;;;;;;16.63;13.05;;;26.30;57.90;;;;;;5024784;28;20021;-68
2022/08/16 06:58:00;;;;;;;14.88;12.82;;;26.40;57.60;;;;;;5033452;28;20034;-68
2022/08/16 07:00:27;;;;;;;15.65;13.35;;;26.60;57.30;;;;;;5021419;28;20064;-75
2022/08/16 07:02:59;;;;;;;15.82;13.20;;;26.70;56.90;;;;;;5020933;28;20520;-71
2022/08/16 07:05:25;;;;;;;14.07;12.48;;;26.80;56.60;;;;;;5023541;28;20025;-70
2022/08/16 07:08:12;;;;;;;13.93;12.45;;;26.80;56.40;;;;;;5037435;28;20037;-71
2022/08/16 07:10:39;;;;;;;13.48;12.02;;;27.00;56.20;;;;;;5025921;28;20410;-71
2022/08/16 07:13:05;;;;;;;14.68;12.65;;;27.10;56.00;;;;;;5006277;28;20050;-71
2022/08/16 07:15:33;;;;;;;16.00;12.90;;;27.20;55.60;;;;;;5033530;28;20159;-70
2022/08/16 07:18:00;;;;;;;16.13;12.98;;;27.20;55.40;;;;;;5037506;28;20411;-70
2022/08/16 07:20:27;;;;;;;16.30;12.68;;;27.30;55.20;;;;;;5036807;28;20025;-70
2022/08/16 07:22:56;;;;;;;14.93;11.93;;;27.40;55.10;;;;;;5026570;28;20033;-71
2022/08/16 07:25:48;;;;;;;17.98;12.30;;;27.50;54.90;;;;;;5036663;28;20090;-71
2022/08/16 07:28:16;;;;;;;13.00;11.50;;;27.70;54.60;;;;;;5028273;28;20116;-70
2022/08/16 07:30:42;;;;;;;13.90;11.80;;;27.80;54.20;;;;;;5036796;28;20037;-70
2022/08/16 07:33:15;;;;;;;16.10;11.68;;;27.90;53.80;;;;;;5002683;28;20148;-71
2022/08/16 07:35:40;;;;;;;12.88;11.55;;;28.00;53.40;;;;;;5025030;28;20041;-72
2022/08/16 07:38:06;;;;;;;14.88;11.27;;;28.10;53.20;;;;;;5036563;28;20342;-71
2022/08/16 07:40:40;;;;;;;13.73;10.68;;;28.20;53.00;;;;;;5021840;28;20034;-71
2022/08/16 07:43:06;;;;;;;13.50;10.90;;;28.20;52.70;;;;;;5014462;28;20022;-72
2022/08/16 07:45:32;;;;;;;13.30;11.15;;;28.30;52.70;;;;;;5016268;28;20049;-72
2022/08/16 07:47:58;;;;;;;11.77;9.68;;;28.30;52.40;;;;;;5019758;28;20068;-72
2022/08/16 07:50:26;;;;;;;15.10;10.80;;;28.40;52.10;;;;;;4997462;28;20021;-72
2022/08/16 07:52:52;;;;;;;11.30;9.50;;;28.50;51.90;;;;;;5015594;28;20029;-72
2022/08/16 07:55:18;;;;;;;11.98;9.15;;;28.60;51.70;;;;;;5016907;28;20022;-72
2022/08/16 07:57:44;;;;;;;12.20;9.45;;;28.70;51.50;;;;;;5013507;28;20053;-72
2022/08/16 08:00:11;;;;;;;15.00;10.18;;;28.80;51.20;;;;;;4999455;28;20029;-72
2022/08/16 08:02:43;;;;;;;12.02;9.45;;;28.90;51.00;;;;;;5016157;28;20036;-72
2022/08/16 08:05:16;;;;;;;13.05;9.80;;;29.00;50.90;;;;;;5011888;28;20116;-71
2022/08/16 08:07:41;;;;;;;11.43;8.85;;;29.10;50.50;;;;;;5013484;28;20029;-72
2022/08/16 08:10:09;;;;;;;13.18;9.73;;;29.20;50.40;;;;;;5014363;28;20375;-72
2022/08/16 08:12:36;;;;;;;12.75;8.80;;;29.30;50.00;;;;;;5011175;28;20157;-71
2022/08/16 08:15:05;;;;;;;12.15;8.55;;;29.30;49.80;;;;;;4996682;28;20431;-72
2022/08/16 08:17:32;;;;;;;11.82;8.80;;;29.30;49.70;;;;;;4998480;28;20121;-71
2022/08/16 08:19:59;;;;;;;11.40;8.52;;;29.40;49.60;;;;;;5000448;28;20148;-72
2022/08/16 08:22:25;;;;;;;10.02;7.45;;;29.40;49.40;;;;;;5016306;28;20077;-72
2022/08/16 08:24:53;;;;;;;13.35;7.97;;;29.50;49.20;;;;;;5016188;28;20037;-72
2022/08/16 08:27:19;;;;;;;10.70;8.02;;;29.60;48.90;;;;;;5034096;28;20077;-73
2022/08/16 08:29:45;;;;;;;10.02;7.55;;;29.70;48.40;;;;;;5019172;28;20041;-72
2022/08/16 08:32:12;;;;;;;9.32;7.03;;;29.70;47.90;;;;;;5027136;28;20460;-72
2022/08/16 08:34:38;;;;;;;10.13;7.45;;;29.70;47.60;;;;;;5003976;28;20169;-72
2022/08/16 08:37:04;;;;;;;10.02;7.15;;;29.70;47.30;;;;;;5019857;28;20484;-72
2022/08/16 08:39:37;;;;;;;8.77;6.93;;;29.70;47.10;;;;;;5009354;28;20017;-72
2022/08/16 08:42:04;;;;;;;9.98;6.85;;;29.80;47.00;;;;;;5036044;28;20104;-72
2022/08/16 08:44:31;;;;;;;10.55;6.95;;;29.80;46.90;;;;;;5010598;28;20026;-72
2022/08/16 08:47:05;;;;;;;9.23;6.38;;;29.90;46.90;;;;;;5027798;28;20425;-72
2022/08/16 08:49:33;;;;;;;9.88;7.18;;;30.00;46.70;;;;;;4998703;28;20024;-72
2022/08/16 08:51:58;;;;;;;12.23;7.82;;;30.10;46.60;;;;;;5018969;28;20028;-69
2022/08/16 08:54:25;;;;;;;9.85;6.65;;;30.20;46.70;;;;;;5001252;28;20313;-72
2022/08/16 08:56:53;;;;;;;11.45;7.43;;;30.20;46.60;;;;;;5013443;28;20025;-72
2022/08/16 08:59:33;;;;;;;9.43;6.38;;;30.30;46.50;;;;;;5013681;28;20030;-69
2022/08/16 09:02:00;;;;;;;10.55;6.25;;;30.30;46.60;;;;;;4997948;28;20084;-69
2022/08/16 09:04:31;;;;;;;9.57;6.35;;;30.30;46.50;;;;;;5000959;28;20046;-72
2022/08/16 09:06:58;;;;;;;8.23;6.18;;;30.40;46.60;;;;;;5030000;28;20029;-72
2022/08/16 09:09:24;;;;;;;9.82;6.40;;;30.50;46.60;;;;;;5018499;28;20029;-72
2022/08/16 09:11:55;;;;;;;9.07;5.78;;;30.60;46.40;;;;;;5034906;28;20025;-72
2022/08/16 09:14:21;;;;;;;11.60;7.05;;;30.60;46.30;;;;;;5022635;28;20061;-71
2022/08/16 09:16:46;;;;;;;9.68;6.25;;;30.80;46.20;;;;;;5034995;28;20083;-72
2022/08/16 09:19:12;;;;;;;11.23;5.70;;;30.80;46.10;;;;;;5018475;28;20455;-72
2022/08/16 09:21:38;;;;;;;9.73;6.70;;;31.00;46.20;;;;;;5035173;28;20057;-72
2022/08/16 09:24:04;;;;;;;8.80;6.63;;;31.10;45.90;;;;;;5034599;28;20385;-72
2022/08/16 09:26:29;;;;;;;8.90;6.15;;;31.10;45.70;;;;;;5017986;28;20025;-72
2022/08/16 09:28:56;;;;;;;11.13;6.85;;;31.10;45.50;;;;;;5004457;28;20037;-72
2022/08/16 09:31:23;;;;;;;8.07;5.75;;;31.20;45.50;;;;;;5018324;28;20043;-72
2022/08/16 09:33:50;;;;;;;9.18;5.55;;;31.30;45.50;;;;;;5018144;28;20022;-72
2022/08/16 09:36:15;;;;;;;8.48;6.13;;;31.30;45.30;;;;;;5035491;28;20155;-72
2022/08/16 09:38:41;;;;;;;9.40;5.95;;;31.40;45.30;;;;;;5035783;28;20494;-73
2022/08/16 09:41:09;;;;;;;8.68;5.45;;;31.50;45.20;;;;;;5035370;28;20045;-72
2022/08/16 09:43:36;;;;;;;8.20;6.10;;;31.60;45.00;;;;;;5034601;28;20029;-72
2022/08/16 09:46:03;;;;;;;9.48;5.82;;;31.70;44.80;;;;;;5022801;28;20100;-72
2022/08/16 09:48:31;;;;;;;8.38;5.32;;;31.70;44.70;;;;;;5033523;28;20506;-73
2022/08/16 09:50:57;;;;;;;10.20;6.03;;;31.80;44.80;;;;;;5034711;28;20107;-72
2022/08/16 09:53:23;;;;;;;9.52;5.85;;;31.80;44.50;;;;;;5035740;28;20017;-72
2022/08/16 09:55:52;;;;;;;8.02;5.60;;;31.80;44.50;;;;;;5034545;28;20087;-72
2022/08/16 09:58:22;;;;;;;8.73;5.53;;;31.60;44.40;;;;;;5025880;28;20026;-72
2022/08/16 10:00:49;;;;;;;9.53;5.30;;;31.60;44.50;;;;;;5030863;28;20083;-72
2022/08/16 10:03:15;;;;;;;10.90;5.97;;;31.60;44.50;;;;;;5035578;28;20732;-72
2022/08/16 10:05:41;;;;;;;7.85;5.70;;;31.70;44.40;;;;;;5017550;28;20026;-72
2022/08/16 10:08:07;;;;;;;8.70;5.50;;;31.70;44.10;;;;;;5035109;28;20064;-73
2022/08/16 10:10:34;;;;;;;7.82;5.70;;;31.80;44.00;;;;;;5034855;28;20132;-72
2022/08/16 10:13:12;;;;;;;10.73;6.97;;;31.90;43.80;;;;;;5029705;28;20070;-72
2022/08/16 10:15:40;;;;;;;9.82;6.22;;;32.00;43.40;;;;;;5025278;28;20021;-72
2022/08/16 10:18:11;;;;;;;9.18;5.90;;;32.00;43.40;;;;;;5028891;28;20109;-74
2022/08/16 10:20:41;;;;;;;9.55;5.85;;;32.00;43.30;;;;;;5020119;28;20041;-73
2022/08/16 10:23:09;;;;;;;11.80;6.63;;;32.00;43.20;;;;;;5022329;28;20026;-73
2022/08/16 10:25:38;;;;;;;7.80;4.53;;;31.90;43.20;;;;;;5008036;28;20026;-73
2022/08/16 10:28:05;;;;;;;8.75;5.30;;;31.80;43.40;;;;;;5026775;28;20026;-72
2022/08/16 10:30:30;;;;;;;7.90;5.30;;;32.00;43.60;;;;;;5013955;28;20041;-71
2022/08/16 10:32:57;;;;;;;8.48;5.25;;;32.10;43.80;;;;;;5012158;28;20026;-71
2022/08/16 10:35:23;;;;;;;8.00;5.10;;;32.10;42.90;;;;;;5014370;28;20395;-71
2022/08/16 10:37:49;;;;;;;8.88;5.05;;;32.20;42.70;;;;;;5012672;28;20455;-71
2022/08/16 10:40:16;;;;;;;9.50;5.45;;;32.30;42.60;;;;;;5001088;28;20108;-71
2022/08/16 10:42:42;;;;;;;7.65;4.20;;;32.40;42.60;;;;;;5004770;28;20370;-71
2022/08/16 10:45:08;;;;;;;8.30;5.65;;;32.50;42.60;;;;;;5013500;28;20030;-71
2022/08/16 10:47:34;;;;;;;8.10;5.15;;;32.60;42.30;;;;;;5007537;28;20109;-71
2022/08/16 10:50:01;;;;;;;9.73;4.82;;;32.70;42.20;;;;;;5016689;28;20083;-71
2022/08/16 10:52:28;;;;;;;8.25;4.82;;;32.80;42.10;;;;;;5033993;28;20471;-69
2022/08/16 10:54:53;;;;;;;8.95;5.32;;;32.80;41.80;;;;;;5028602;28;20376;-69
2022/08/16 10:57:19;;;;;;;8.43;5.13;;;32.70;41.80;;;;;;5032554;28;20075;-72
2022/08/16 10:59:45;;;;;;;7.88;5.13;;;32.70;41.90;;;;;;5025180;28;20033;-69
2022/08/16 11:02:11;;;;;;;8.52;4.90;;;32.80;42.10;;;;;;5025061;28;20075;-72
2022/08/16 11:04:37;;;;;;;7.10;4.97;;;32.90;42.20;;;;;;4994136;28;20416;-71
2022/08/16 11:07:04;;;;;;;8.88;5.30;;;32.90;42.10;;;;;;5007080;28;20065;-71
2022/08/16 11:09:30;;;;;;;8.57;4.78;;;32.90;42.00;;;;;;5011078;28;20121;-71
2022/08/16 11:11:56;;;;;;;9.40;5.47;;;32.90;42.00;;;;;;5030147;28;20086;-70
2022/08/16 11:14:22;;;;;;;8.30;5.10;;;33.00;42.00;;;;;;5013882;28;20038;-71
2022/08/16 11:16:48;;;;;;;8.68;5.45;;;33.10;41.90;;;;;;5028451;28;20101;-70
2022/08/16 11:19:14;;;;;;;7.65;5.35;;;33.00;41.70;;;;;;5011975;28;20981;-71
2022/08/16 11:21:42;;;;;;;6.95;4.35;;;32.90;41.60;;;;;;5009954;28;20042;-71
2022/08/16 11:24:07;;;;;;;8.65;5.40;;;32.80;41.50;;;;;;5020800;28;20034;-71
2022/08/16 11:26:33;;;;;;;8.40;5.50;;;32.70;41.30;;;;;;5014566;28;20038;-70
2022/08/16 11:28:59;;;;;;;7.20;4.60;;;32.50;41.40;;;;;;5016424;28;20153;-70
2022/08/16 11:31:25;;;;;;;7.88;4.63;;;32.40;41.80;;;;;;5009740;28;20340;-70
2022/08/16 11:33:51;;;;;;;8.50;4.57;;;32.30;41.60;;;;;;5022172;28;20053;-70
2022/08/16 11:36:18;;;;;;;8.15;4.93;;;32.10;41.60;;;;;;5023134;28;20378;-70
2022/08/16 11:38:45;;;;;;;7.65;5.05;;;32.10;41.70;;;;;;4996718;28;20017;-71
2022/08/16 11:41:11;;;;;;;7.38;4.65;;;32.20;41.70;;;;;;5003935;28;20015;-70
2022/08/16 11:43:40;;;;;;;7.30;4.75;;;32.30;41.50;;;;;;4987901;28;20483;-69
2022/08/16 11:46:09;;;;;;;9.07;4.97;;;32.30;41.40;;;;;;5004178;28;20089;-69
2022/08/16 11:48:35;;;;;;;8.18;4.70;;;32.40;41.40;;;;;;4983548;28;20033;-70
2022/08/16 11:51:02;;;;;;;8.60;5.05;;;32.40;41.50;;;;;;5004575;28;20105;-70
2022/08/16 11:53:29;;;;;;;8.98;5.15;;;32.40;41.40;;;;;;5004567;28;20069;-69
2022/08/16 11:55:55;;;;;;;7.30;4.72;;;32.40;41.50;;;;;;5004160;28;20451;-68
2022/08/16 11:58:27;;;;;;;8.57;5.55;;;32.50;41.70;;;;;;5023699;28;20037;-69
2022/08/16 12:00:56;;;;;;;7.47;4.93;;;32.50;41.70;;;;;;5018390;28;20071;-69
2022/08/16 12:03:25;;;;;;;7.90;4.93;;;32.60;41.80;;;;;;5018824;28;20371;-72
2022/08/16 12:05:50;;;;;;;7.53;4.45;;;32.70;41.80;;;;;;5011829;28;20378;-70
2022/08/16 12:08:16;;;;;;;16.23;4.78;;;32.60;41.50;;;;;;5018297;28;20032;-71
2022/08/16 12:10:45;;;;;;;8.82;5.10;;;32.70;41.50;;;;;;5025648;28;20036;-72
2022/08/16 12:13:13;;;;;;;8.07;5.18;;;32.70;41.60;;;;;;5017500;28;20054;-71
2022/08/16 12:15:41;;;;;;;7.30;5.15;;;32.40;41.80;;;;;;5014727;28;20029;-71
2022/08/16 12:18:08;;;;;;;13.00;5.60;;;32.20;42.00;;;;;;5017577;28;20351;-71
2022/08/16 12:20:37;;;;;;;9.90;5.10;;;32.00;42.20;;;;;;5019897;28;20017;-72
2022/08/16 12:23:04;;;;;;;8.38;5.78;;;31.90;42.40;;;;;;5026561;28;20057;-72
2022/08/16 12:25:31;;;;;;;8.82;5.35;;;31.80;42.50;;;;;;5018016;28;20045;-72
2022/08/16 12:27:58;;;;;;;6.93;4.70;;;31.60;42.50;;;;;;5011996;28;20367;-71
2022/08/16 12:30:27;;;;;;;9.25;5.03;;;31.40;42.70;;;;;;5007223;28;20454;-72
2022/08/16 12:32:54;;;;;;;7.65;4.90;;;31.30;42.90;;;;;;5030600;28;20104;-73
2022/08/16 12:35:21;;;;;;;8.68;5.53;;;31.10;43.00;;;;;;5018499;28;20109;-72
2022/08/16 12:37:48;;;;;;;7.45;4.80;;;31.00;43.00;;;;;;5018628;28;20072;-72
2022/08/16 12:40:20;;;;;;;9.82;5.32;;;30.90;43.10;;;;;;5007774;28;20084;-75
2022/08/16 12:42:50;;;;;;;8.55;5.15;;;30.80;43.20;;;;;;5018286;28;20060;-74